Genesee Depot, WI (53127)

4:02 PM CST on November 24, 2014 (GMT -0600)
KWIGENES3 | Change Station
CLOSE
Current Station
Personal Weather Station
Location: GENESEE DEPOT, WI
Elevation: 931 ft
Nearby Weather Stations
Active Advisory: Winter Weather Advisory

Elev 931 ft 42.97 °N, 88.36 °W | Updated 1 minute ago

Snow
Snow
27.2 °F
Feels Like 19 °F
N
8.0
Wind Variable Wind from WSW
Gusts 13.0 mph

Today
High -- | Low -- °F
--% Chance of Precip.
Yesterday
High -- | Low -- °F
Precip. -- in
6:56 AM 4:23 PM
Waxing Crescent, 7% visible
Pressure 29.41 in
Visibility 0.5 miles
Clouds Overcast 600 ft
Windchill 19 °F
Dew Point 26 °F
Humidity 97%
Rainfall 0.14 in
Snow Depth Not available.
UV 0.0 out of 12
Pollen .10 out of 12
Air Quality Not available.
Flu Activity Not available.
METAR KUES 242145Z 25011G23KT 1/2SM -SN OVC006 M03/M03 A2941

More Conditions Fewer Conditions

Pressure 29.41 in
Visibility 0.5 miles
Clouds Overcast 600 ft
Windchill 19 °F
Dew Point 26 °F
Humidity 97%
Rainfall 0.14 in
Snow Depth Not available.
UV 0.0 out of 12
Pollen .10 out of 12
Air Quality Not available.
Flu Activity Not available.
METAR KUES 242145Z 25011G23KT 1/2SM -SN OVC006 M03/M03 A2941

More Conditions Fewer Conditions

10-Day Weather Forecast

Almanac

Astronomy

Nov. 24, 2014 Rise Set
Actual Time
Civil Twilight
Nautical Twilight
Astronomical Twilight
Moon
Length of Visible Light
Length of Day
Tomorrow will be .
, % of the Moon is Illuminated

Today's Extremes

State Highs State Lows

Community

WunderPhotos

Upload Photos

1,773,423 photos uploaded!

WunderBlogs® & News

Nearby

Air Quality

  Air Quality AQ Index Pollutant
Not available.

Snow Depth

Station Depth Elevation

Earthquake Activity

City Distance Mag. Time & Date
Minimum magnitude displayed is 2.5.

Coastal Water Temperatures

Place Temperature

Nearby Weather Stations